x

N01 - Northeast Channel (44024) Wave Buoy

4:04pm - Sun 26th Feb 2017 All times are AST. -4 hours from GMT.

  • Sig Wave height 11.8ft
  • Peak Period 8s
  • Wind
    22mph, 31mph gusts
  • Sea Temp 38°f
  • Air Temp 40°f
  • Sea Pressure 1007.7mb
  • N01 - Northeast Channel
  • N01 - Northeast Channel

More Historic Weather Station data

Upgrade to MSW Pro to gain access to the past 30 days of data for over 8000 Wavebouys and Weather Stations around the globe.

Join Pro

Comparision Forecast

View Surf forecast
   
Sun 02/26 4:04pm 12ft 8s 22 31 mph 1007.7mb 38f 40f
3:04pm 12ft 8s 25 29 mph 1006.7mb 38f 40f
2:04pm 11ft 11s 20 25 mph 1005.7mb 38f 40f
1:04pm 10ft 11s 27 34 mph 1004.7mb 38f 41f
12:04pm 11ft 11s 20 25 mph 1003.9mb 38f 41f
11:04am 12ft 11s 20 25 mph 1003.3mb 38f 41f
10:04am 10ft 11s 20 25 mph 1002mb 38f 41f
9:04am 10.5ft 11s 22 29 mph 1000.8mb 38f 41f
8:04am 11.5ft 11s 18 22 mph 998.7mb 38f 43f
7:04am 13.5ft 11s 16 18 mph 997.6mb 38f 42f
6:04am 12ft 11s 18 20 mph 996.9mb 38f 43f
5:04am 9.5ft 11s 16 18 mph 996mb 38f 43f
4:04am 8.5ft 11s 16 18 mph 994.9mb 38f 43f
3:04am 7.5ft 11s 20 25 mph 994.7mb 38f 45f
2:04am 6ft 8s 20 27 mph 994mb 38f 43f
1:04am 5ft 6s 20 22 mph 994.3mb 38f 44f
12:04am 4ft 6s 16 18 mph 994.7mb 38f 47f
Sat 02/25 11:04pm 4.5ft 5s 18 22 mph 996.2mb 38f 49f
10:04pm 3.5ft 5s 16 18 mph 998.9mb 38f 47f
9:04pm 4.5ft 11s 16 18 mph 1001.6mb 38f 47f
8:04pm  -   -  16 18 mph 1003.4mb - 45f
7:04pm 4ft 11s 13 16 mph 1005mb 37f 46f
6:04pm 4ft 11s 13 16 mph 1006.5mb 38f 46f
5:04pm 4ft 11s 16 20 mph 1007.9mb 38f 47f
4:04pm 4ft 11s 11 13 mph 1008.8mb 38f 45f
3:04pm 3.5ft 11s 11
mph
1009.4mb 38f 45f
2:04pm 3.5ft 11s 9
mph
1010.9mb 37f 43f
1:04pm 3ft 11s 7 9 mph 1012.1mb 37f 43f
12:04pm 3ft 11s 9
mph
1013.2mb 38f 44f
11:04am 3ft 11s 11
mph
1014.2mb 37f 44f
10:04am 3ft 11s 11
mph
1014.2mb 37f 44f
9:04am 3.5ft 11s 9 11 mph 1015mb 38f 42f
8:04am 3.5ft 11s 7
mph
1015.3mb 37f 42f
6:04am 3.5ft 11s 11 13 mph 1015.3mb 37f 42f
5:04am 4ft 11s 9 11 mph 1015.3mb 37f 42f
4:04am 4.5ft 11s 11
mph
1015mb 37f 42f
3:04am 2.5ft 5s 13 16 mph 1014.8mb 37f 43f
2:04am 2.5ft 5s 13 16 mph 1015mb 37f 43f
1:04am 4ft 11s 13
mph
1015.1mb 37f 42f
12:04am 2.5ft 5s 13 16 mph 1015mb 37f 43f
Fri 02/24 11:04pm 4.5ft 11s 13
mph
1015.3mb 37f 42f
10:04pm 4.5ft 11s 13
mph
1015.8mb 37f 42f
9:04pm 3.5ft 11s 13
mph
1015.7mb 37f 42f
8:04pm 3.5ft 11s 13 16 mph 1015.8mb 37f 42f
7:04pm 4.5ft 11s 13
mph
1016.2mb 37f 42f
6:04pm 4.5ft 11s 11 13 mph 1015.8mb 37f 43f
5:04pm 3ft 5s 13
mph
1015.8mb 38f 43f
4:04pm 5ft 5s 9 11 mph 1015.8mb 38f 43f
3:04pm 3.5ft 5s 11 13 mph 1015.4mb 37f 43f
2:04pm 4ft 5s 11 13 mph 1015.3mb 37f 43f
1:04pm 4.5ft 5s 11 13 mph 1015.2mb 37f 43f
12:04pm 5.5ft 6s 16 18 mph 1015.7mb 37f 44f
11:04am 5ft 5s 11 13 mph 1015.8mb 37f 43f
10:04am 4.5ft 5s 11 13 mph 1015.8mb 37f 43f
9:04am 5.5ft 11s 13 16 mph 1015.6mb 37f 43f
8:04am 5ft 6s 16 18 mph 1014.9mb 37f 43f
7:04am 6ft 6s 16 18 mph 1014.5mb 38f 44f
6:04am 5ft 6s 13 16 mph 1013.9mb 38f 44f
5:04am 5ft 5s 13 16 mph 1013.5mb 38f 44f
4:04am 6.5ft 11s 16 20 mph 1013.6mb 38f 45f
3:04am 5ft 5s 16 18 mph 1013.1mb 38f 44f
2:04am 5.5ft 5s 18 20 mph 1012.9mb 38f 44f
1:04am 5ft 5s 20 22 mph 1012.6mb 38f 44f
12:04am 6ft 11s 18 22 mph 1012.9mb 38f 43f
Thu 02/23 11:04pm 5ft 11s 18 20 mph 1013mb 38f 43f
10:04pm 5.5ft 11s 20 25 mph 1012.3mb 37f 44f
9:04pm 6ft 11s 16 18 mph 1012.6mb 37f 42f
8:04pm 5ft 11s 13 16 mph 1012.5mb 38f 42f
7:04pm 5ft 11s 16 20 mph 1012.3mb 38f 42f
6:04pm 6.5ft 11s 13 16 mph 1012mb 38f 41f
5:04pm  -   -  13 16 mph 1011.6mb 38f 41f
4:04pm 5ft 11s 16
mph
1011.6mb 38f 41f
3:04pm 5.5ft 11s 13 16 mph 1011.8mb 38f 41f
2:04pm 6ft 11s 13
mph
1012.3mb 38f 40f
1:04pm 6ft 11s 11
mph
1012.8mb 38f 40f
12:04pm 5ft 11s 11
mph
1013.5mb 38f 39f
11:04am 4.5ft 11s 11 13 mph 1013.8mb 38f 39f
10:04am 4.5ft 11s 9 11 mph 1013.7mb 38f 39f
9:04am 4ft 11s 7 9 mph 1013.7mb 38f 39f
8:04am 4.5ft 11s 4 7 mph 1013.5mb 38f 40f
7:04am 4ft 11s 4 7 mph 1013mb 38f 40f
6:04am 4.5ft 11s 2 4 mph 1012.9mb 38f 40f